createdAt,value
2019-05-19T00:01:45.420Z,93.64
2019-05-19T00:04:17.357Z,93.98
2019-05-19T00:06:48.998Z,94.34
2019-05-19T00:09:20.725Z,94.67
2019-05-19T00:11:52.478Z,94.11
2019-05-19T00:14:24.022Z,93.83
2019-05-19T00:16:55.654Z,93.36
2019-05-19T00:19:27.331Z,93.29
2019-05-19T00:22:00.392Z,93.02
2019-05-19T00:24:31.938Z,93.32
2019-05-19T00:27:03.552Z,92.89
2019-05-19T00:29:35.395Z,93.16
2019-05-19T00:32:07.042Z,92.53
2019-05-19T00:34:38.582Z,92.03
2019-05-19T00:37:10.327Z,92.49
2019-05-19T00:39:42.070Z,93.05
2019-05-19T00:42:13.828Z,93.20
2019-05-19T00:44:45.569Z,93.94
2019-05-19T00:47:17.113Z,93.38
2019-05-19T00:49:48.667Z,93.16
2019-05-19T00:52:20.324Z,92.81
2019-05-19T00:54:52.072Z,93.20
2019-05-19T00:57:25.924Z,93.17
2019-05-19T00:59:58.774Z,92.65
2019-05-19T01:02:31.284Z,93.29
2019-05-19T01:05:03.300Z,93.81
2019-05-19T01:07:35.277Z,93.19
2019-05-19T01:10:10.588Z,93.39
2019-05-19T01:12:42.139Z,93.59
2019-05-19T01:15:14.288Z,92.63
2019-05-19T01:17:45.902Z,92.77
2019-05-19T01:20:18.580Z,92.12
2019-05-19T01:22:50.228Z,92.63
2019-05-19T01:25:22.073Z,92.76
2019-05-19T01:27:53.621Z,92.62
2019-05-19T01:30:25.255Z,92.93
2019-05-19T01:32:56.803Z,93.51
2019-05-19T01:35:28.339Z,93.16
2019-05-19T01:38:00.189Z,94.16
2019-05-19T01:40:31.733Z,94.45
2019-05-19T01:43:03.284Z,94.15
2019-05-19T01:45:34.918Z,94.16
2019-05-19T01:48:09.731Z,93.85
2019-05-19T01:50:41.469Z,94.17
2019-05-19T01:53:13.220Z,94.24
2019-05-19T01:55:44.972Z,94.65
2019-05-19T01:58:16.721Z,95.31
2019-05-19T02:00:48.267Z,96.13
2019-05-19T02:03:20.009Z,95.92
2019-05-19T02:05:51.749Z,96.17
2019-05-19T02:08:23.500Z,96.60
2019-05-19T02:10:55.252Z,95.81
2019-05-19T02:13:27.011Z,95.46
2019-05-19T02:15:58.565Z,95.69
2019-05-19T02:18:30.215Z,95.70
2019-05-19T02:21:03.410Z,94.91
2019-05-19T02:23:34.961Z,94.83
2019-05-19T02:26:06.525Z,94.51
2019-05-19T02:28:38.173Z,94.47
2019-05-19T02:31:09.717Z,94.35
2019-05-19T02:33:41.355Z,94.79
2019-05-19T02:36:12.904Z,94.22
2019-05-19T02:38:44.452Z,94.38
2019-05-19T02:41:18.273Z,94.19
2019-05-19T02:43:53.101Z,94.97
2019-05-19T02:46:26.551Z,94.65
2019-05-19T02:49:00.537Z,95.88
2019-05-19T02:51:35.162Z,95.84
2019-05-19T02:54:09.235Z,95.69
2019-05-19T02:56:41.055Z,95.67
2019-05-19T02:59:14.050Z,96.66
2019-05-19T03:02:02.657Z,97.39
2019-05-19T03:04:34.305Z,97.49
2019-05-19T03:07:06.155Z,98.14
2019-05-19T03:09:37.903Z,97.89
2019-05-19T03:12:09.739Z,98.67
2019-05-19T03:14:41.485Z,99.02
2019-05-19T03:17:13.224Z,99.22
2019-05-19T03:19:44.789Z,98.08
2019-05-19T03:22:16.332Z,97.92
2019-05-19T03:24:47.890Z,98.72
2019-05-19T03:27:19.454Z,99.01
2019-05-19T03:29:52.634Z,100.00
2019-05-19T03:32:34.790Z,100.00
2019-05-19T03:35:06.685Z,100.00
2019-05-19T03:37:38.358Z,100.00
2019-05-19T03:40:12.058Z,100.00
2019-05-19T03:42:43.595Z,99.65
2019-05-19T03:45:15.136Z,98.85
2019-05-19T03:47:46.850Z,98.52
2019-05-19T03:50:18.689Z,97.51
2019-05-19T03:52:50.440Z,97.07
2019-05-19T03:55:21.986Z,95.28
2019-05-19T03:57:53.523Z,93.78
2019-05-19T04:00:25.533Z,91.52
2019-05-19T04:02:57.076Z,85.08
2019-05-19T04:05:29.225Z,79.35
2019-05-19T04:08:01.014Z,72.76
2019-05-19T04:10:32.750Z,68.68
2019-05-19T04:13:04.504Z,65.73
2019-05-19T04:15:36.246Z,60.60
2019-05-19T04:18:07.984Z,57.45
2019-05-19T04:20:39.729Z,56.61
2019-05-19T04:23:11.569Z,54.42
2019-05-19T04:25:43.312Z,52.83
2019-05-19T04:28:15.047Z,54.30
2019-05-19T04:30:46.801Z,60.79
2019-05-19T04:33:18.550Z,66.76
2019-05-19T04:35:51.934Z,68.34
2019-05-19T04:38:23.582Z,69.41
2019-05-19T04:40:55.418Z,65.26
2019-05-19T04:43:27.162Z,66.98
2019-05-19T04:45:58.902Z,69.65
2019-05-19T04:48:32.703Z,73.06
2019-05-19T04:51:07.255Z,74.60
2019-05-19T04:53:41.227Z,77.32
2019-05-19T04:56:14.551Z,79.01
2019-05-19T04:58:46.293Z,78.73
2019-05-19T05:01:18.913Z,79.35
2019-05-19T05:03:50.455Z,79.62
2019-05-19T05:06:22.298Z,79.91
2019-05-19T05:08:53.975Z,79.41
2019-05-19T05:11:25.719Z,79.83
2019-05-19T05:13:57.468Z,80.03
2019-05-19T05:16:29.211Z,80.49
2019-05-19T05:19:05.147Z,81.04
2019-05-19T05:21:36.719Z,81.42
2019-05-19T05:24:10.206Z,80.92
2019-05-19T09:25:58.327Z,56.80
2019-05-19T09:28:31.212Z,56.19
2019-05-19T09:31:02.987Z,62.29
2019-05-19T09:33:36.567Z,58.35
2019-05-19T09:36:22.221Z,59.00
2019-05-19T09:38:53.937Z,58.86
2019-05-19T09:41:26.051Z,58.35
2019-05-19T09:43:58.781Z,58.18
2019-05-19T09:46:32.449Z,59.07
2019-05-19T09:49:26.149Z,59.12
2019-05-19T09:51:57.879Z,58.75
2019-05-19T09:54:44.100Z,60.19
2019-05-19T09:57:19.423Z,61.86
2019-05-19T09:59:54.865Z,60.95
2019-05-19T10:02:26.697Z,58.78
2019-05-19T10:04:58.720Z,61.12
2019-05-19T10:07:40.988Z,61.49
2019-05-19T10:10:30.495Z,61.07
2019-05-19T10:13:02.193Z,59.95
2019-05-19T10:15:36.610Z,60.18
2019-05-19T10:18:11.891Z,60.80
2019-05-19T10:20:43.766Z,59.66
2019-05-19T10:23:15.545Z,62.69
2019-05-19T10:25:50.906Z,61.87
2019-05-19T10:28:23.595Z,60.12
2019-05-19T10:30:56.332Z,60.30
2019-05-19T10:33:29.576Z,59.10
2019-05-19T10:36:07.813Z,59.05
2019-05-19T10:38:39.985Z,57.84
2019-05-19T10:41:19.007Z,57.04
2019-05-19T10:43:54.195Z,57.75
2019-05-19T10:46:25.792Z,56.44
2019-05-19T10:48:57.663Z,57.50
2019-05-19T10:51:32.366Z,55.03
2019-05-19T10:54:05.775Z,54.05
2019-05-19T10:56:39.049Z,54.95
2019-05-19T10:59:12.554Z,53.93
2019-05-19T11:01:48.681Z,55.72
2019-05-19T11:04:22.118Z,56.19
2019-05-19T11:06:53.699Z,57.49
2019-05-19T11:09:26.990Z,56.36
2019-05-19T11:12:00.539Z,55.62
2019-05-19T11:14:32.204Z,55.18
2019-05-19T11:17:05.633Z,53.57
2019-05-19T11:19:37.490Z,48.59
2019-05-19T11:22:10.825Z,47.36
2019-05-19T11:24:44.062Z,48.94
2019-05-19T11:27:15.885Z,49.59
2019-05-19T11:29:48.516Z,50.28
2019-05-19T11:32:20.267Z,49.07
2019-05-19T11:34:52.043Z,49.60
2019-05-19T11:37:23.787Z,50.41
2019-05-19T11:39:55.574Z,50.47
2019-05-19T11:42:27.350Z,48.46
2019-05-19T11:44:59.104Z,50.07
2019-05-19T11:47:30.862Z,50.57
2019-05-19T11:50:02.662Z,51.01
2019-05-19T11:52:34.320Z,48.70
2019-05-19T11:55:09.408Z,48.02
2019-05-19T11:57:41.271Z,47.19
2019-05-19T12:00:14.029Z,46.77
2019-05-19T12:02:45.683Z,47.52
2019-05-19T12:05:19.141Z,47.54
2019-05-19T12:07:50.801Z,47.80
2019-05-19T12:10:22.569Z,45.59
2019-05-19T12:12:56.127Z,47.35
2019-05-19T12:15:27.975Z,47.92
2019-05-19T12:18:00.023Z,48.31
2019-05-19T12:20:32.022Z,48.49
2019-05-19T12:23:03.805Z,47.42
2019-05-19T12:25:35.496Z,46.85
2019-05-19T12:28:07.251Z,46.14
2019-05-19T12:30:42.898Z,46.08
2019-05-19T12:33:16.019Z,47.70
2019-05-19T12:35:47.685Z,47.86
2019-05-19T12:38:19.518Z,46.97
2019-05-19T12:40:52.739Z,47.10
2019-05-19T12:43:25.461Z,46.74
2019-05-19T12:45:57.334Z,45.12
2019-05-19T12:48:28.981Z,44.75
2019-05-19T12:51:01.937Z,44.64
2019-05-19T12:53:33.790Z,44.83
2019-05-19T12:56:05.630Z,44.22
2019-05-19T12:58:37.317Z,44.91
2019-05-19T13:01:09.103Z,46.35
2019-05-19T13:03:41.137Z,46.65
2019-05-19T13:06:12.909Z,47.47
2019-05-19T13:08:45.810Z,49.14
2019-05-19T13:11:17.597Z,50.10
2019-05-19T13:13:49.401Z,50.53
2019-05-19T13:16:21.110Z,50.17
2019-05-19T13:18:54.447Z,50.38
2019-05-19T13:21:27.794Z,49.76
2019-05-19T13:23:59.463Z,49.27
2019-05-19T13:26:31.238Z,49.48
2019-05-19T13:29:03.331Z,49.12
2019-05-19T13:31:35.831Z,49.36
2019-05-19T13:34:08.328Z,49.70
2019-05-19T13:36:40.495Z,49.78
2019-05-19T13:39:12.531Z,50.09
2019-05-19T13:41:44.304Z,49.73
2019-05-19T13:44:16.011Z,49.87
2019-05-19T13:46:49.148Z,49.82
2019-05-19T13:49:21.099Z,49.65
2019-05-19T13:51:52.866Z,48.81
2019-05-19T13:54:25.781Z,48.59
2019-05-19T13:57:11.271Z,47.98
2019-05-19T13:59:30.869Z,48.45
2019-05-19T14:02:03.188Z,48.21
2019-05-19T14:04:35.218Z,48.66
2019-05-19T14:07:08.896Z,48.40
2019-05-19T14:09:40.647Z,48.77
2019-05-19T14:12:13.271Z,48.42
2019-05-19T14:14:45.096Z,48.34
2019-05-19T14:17:20.021Z,48.47
2019-05-19T14:19:53.508Z,48.25
2019-05-19T14:22:25.255Z,49.16
2019-05-19T14:24:57.310Z,48.47
2019-05-19T14:27:30.682Z,47.71
2019-05-19T14:30:02.443Z,48.82
2019-05-19T14:32:34.125Z,48.07
2019-05-19T14:35:07.691Z,48.18
2019-05-19T14:37:39.301Z,47.59
2019-05-19T14:40:14.082Z,47.65
2019-05-19T14:42:50.504Z,47.03
2019-05-19T14:45:22.155Z,46.92
2019-05-19T14:47:53.898Z,46.61
2019-05-19T14:50:25.654Z,45.39
2019-05-19T14:52:59.372Z,46.44
2019-05-19T14:55:31.014Z,46.04
2019-05-19T14:58:02.749Z,45.50
2019-05-19T15:00:34.652Z,45.66
2019-05-19T15:03:06.277Z,43.65
2019-05-19T15:05:38.035Z,42.12
2019-05-19T15:08:11.052Z,41.65
2019-05-19T15:10:43.065Z,42.55
2019-05-19T15:13:14.655Z,42.93
2019-05-19T15:15:50.171Z,44.41
2019-05-19T15:18:23.267Z,44.39
2019-05-19T15:20:55.406Z,44.85
2019-05-19T15:23:28.972Z,46.25
2019-05-19T15:26:00.537Z,45.02
2019-05-19T15:28:32.449Z,45.35
2019-05-19T15:31:08.146Z,45.01
2019-05-19T15:33:44.954Z,46.02
2019-05-19T15:36:18.311Z,45.67
2019-05-19T15:38:56.376Z,44.85
2019-05-19T15:41:32.427Z,45.43
2019-05-19T15:44:04.730Z,45.39
2019-05-19T15:46:36.593Z,44.55
2019-05-19T15:49:08.318Z,43.08
2019-05-19T15:51:40.176Z,47.54
2019-05-19T15:54:11.935Z,50.18
2019-05-19T15:56:43.874Z,49.77
2019-05-19T15:59:15.696Z,50.65
2019-05-19T16:01:47.475Z,51.47
2019-05-19T16:04:19.211Z,51.72
2019-05-19T16:06:51.145Z,51.46
2019-05-19T16:09:23.326Z,51.49
2019-05-19T16:11:55.178Z,51.53
2019-05-19T16:14:27.020Z,52.84
2019-05-19T16:16:58.668Z,53.65
2019-05-19T16:19:30.721Z,54.65
2019-05-19T16:22:02.493Z,55.79
2019-05-19T16:24:36.615Z,57.76
2019-05-19T16:27:08.481Z,58.24
2019-05-19T16:29:40.239Z,59.23
2019-05-19T16:32:13.172Z,59.55
2019-05-19T16:34:45.868Z,60.39
2019-05-19T16:37:18.851Z,60.80
2019-05-19T16:39:50.606Z,61.51
2019-05-19T16:42:23.354Z,62.48
2019-05-19T16:44:55.099Z,62.96
2019-05-19T16:47:26.868Z,63.23
2019-05-19T16:49:58.523Z,63.47
2019-05-19T16:52:30.451Z,64.52
2019-05-19T16:55:18.762Z,65.05
2019-05-19T16:57:50.832Z,65.55
2019-05-19T17:00:24.747Z,66.02
2019-05-19T17:02:56.317Z,66.33
2019-05-19T17:05:28.238Z,66.89
2019-05-19T17:07:59.968Z,66.81
2019-05-19T17:10:33.220Z,67.47
2019-05-19T17:13:04.980Z,67.24
2019-05-19T17:15:36.760Z,68.08
2019-05-19T17:18:09.988Z,68.31
2019-05-19T17:20:41.847Z,68.17
2019-05-19T17:23:13.629Z,68.87
2019-05-19T17:25:45.357Z,68.86
2019-05-19T17:28:17.152Z,69.02
2019-05-19T17:30:48.921Z,68.93
2019-05-19T17:33:20.741Z,69.42
2019-05-19T17:35:53.404Z,69.47
2019-05-19T17:38:27.166Z,69.22
2019-05-19T17:40:58.805Z,69.08
2019-05-19T17:43:30.678Z,68.69
2019-05-19T17:46:02.445Z,67.75
2019-05-19T17:48:35.533Z,67.74
2019-05-19T17:51:07.654Z,67.35
2019-05-19T17:53:39.577Z,66.85
2019-05-19T17:56:14.727Z,66.47
2019-05-19T17:58:47.560Z,66.74
2019-05-19T18:01:19.119Z,67.10
2019-05-19T18:03:51.056Z,67.10
2019-05-19T18:06:22.792Z,67.13
2019-05-19T18:08:54.481Z,67.33
2019-05-19T18:11:27.473Z,66.88
2019-05-19T18:13:59.161Z,66.95
2019-05-19T18:16:30.897Z,66.16
2019-05-19T18:19:04.305Z,64.81
2019-05-19T18:21:36.003Z,65.53
2019-05-19T18:24:07.768Z,66.61
2019-05-19T18:26:42.381Z,66.85
2019-05-19T18:29:14.043Z,66.03
2019-05-19T18:31:45.766Z,68.03
2019-05-19T18:34:17.527Z,68.52
2019-05-19T18:36:52.006Z,68.09
2019-05-19T18:39:23.605Z,67.14
2019-05-19T18:41:55.240Z,66.50
2019-05-19T18:44:27.033Z,70.12
2019-05-19T18:46:59.440Z,71.04
2019-05-19T18:49:39.133Z,73.42
2019-05-19T18:52:16.439Z,75.21
2019-05-19T18:54:52.702Z,74.00
2019-05-19T18:57:30.106Z,75.28
2019-05-19T19:02:48.338Z,73.20
2019-05-19T19:05:20.110Z,72.36
2019-05-19T19:07:53.507Z,72.01
2019-05-19T19:10:25.170Z,72.80
2019-05-19T19:12:56.937Z,74.12
2019-05-19T19:15:28.683Z,75.27
2019-05-19T19:18:04.403Z,76.27
2019-05-19T19:20:36.319Z,75.69
2019-05-19T19:23:09.285Z,75.09
2019-05-19T19:25:42.253Z,74.19
2019-05-19T19:28:14.400Z,73.40
2019-05-19T19:30:50.243Z,73.42
2019-05-19T19:33:21.918Z,73.34
2019-05-19T19:35:56.769Z,73.82
2019-05-19T19:38:32.317Z,73.52
2019-05-19T19:41:05.330Z,74.31
2019-05-19T19:43:37.152Z,74.42
2019-05-19T19:46:08.825Z,74.39
2019-05-19T19:48:40.588Z,74.61
2019-05-19T19:51:13.455Z,75.09
2019-05-19T19:53:48.769Z,75.19
2019-05-19T19:56:22.829Z,74.87
2019-05-19T19:58:59.147Z,74.83
2019-05-19T20:01:31.078Z,74.82
2019-05-19T20:04:03.322Z,74.89
2019-05-19T20:06:34.913Z,75.08
2019-05-19T20:09:07.964Z,75.08
2019-05-19T20:11:40.951Z,75.53
2019-05-19T20:14:12.630Z,75.75
2019-05-19T20:16:44.368Z,76.21
2019-05-19T20:19:22.251Z,76.99
2019-05-19T20:21:54.146Z,77.44
2019-05-19T20:24:33.844Z,78.75
2019-05-19T20:27:07.149Z,79.06
2019-05-19T20:29:38.799Z,79.26
2019-05-19T20:32:13.329Z,79.28
2019-05-19T20:34:45.082Z,78.96
2019-05-19T20:37:17.994Z,78.34
2019-05-19T20:39:52.541Z,78.47
2019-05-19T20:42:25.887Z,78.80
2019-05-19T20:45:03.106Z,77.62
2019-05-19T20:47:37.047Z,77.47
2019-05-19T20:50:10.886Z,78.34
2019-05-19T20:52:43.733Z,77.46
2019-05-19T20:55:16.369Z,78.27
2019-05-19T20:57:49.662Z,78.61
2019-05-19T21:00:23.062Z,78.14
2019-05-19T21:02:54.612Z,78.22
2019-05-19T21:05:28.523Z,79.64
2019-05-19T21:08:02.445Z,81.45
2019-05-19T21:10:38.489Z,82.52
2019-05-19T21:13:13.912Z,83.79
2019-05-19T21:15:45.474Z,83.20
2019-05-19T21:18:17.187Z,83.34
2019-05-19T21:20:49.171Z,83.80
2019-05-19T21:23:21.332Z,85.48
2019-05-19T21:25:53.078Z,86.23
2019-05-19T21:28:26.224Z,87.51
2019-05-19T21:31:06.064Z,87.83
2019-05-19T21:33:31.214Z,88.84
2019-05-19T21:36:02.953Z,89.13
2019-05-19T21:38:34.672Z,88.99
2019-05-19T21:41:08.334Z,89.55
2019-05-19T21:43:40.059Z,89.81
2019-05-19T21:46:11.815Z,90.06
2019-05-19T21:48:43.529Z,90.92
2019-05-19T21:51:17.849Z,91.47
2019-05-19T21:53:50.859Z,91.69
2019-05-19T21:56:22.584Z,91.17
2019-05-19T21:58:54.318Z,91.39
2019-05-19T22:01:26.796Z,91.31
2019-05-19T22:03:58.421Z,91.10
2019-05-19T22:06:31.824Z,91.61
2019-05-19T22:09:04.385Z,92.00
2019-05-19T22:11:36.098Z,91.54
2019-05-19T22:14:07.917Z,90.92
2019-05-19T22:16:39.668Z,90.76
2019-05-19T22:19:11.399Z,90.53
2019-05-19T22:21:43.250Z,91.14
2019-05-19T22:24:14.973Z,91.90
2019-05-19T22:26:46.704Z,92.95
2019-05-19T22:29:18.439Z,93.51
2019-05-19T22:31:50.279Z,93.83
2019-05-19T22:34:22.025Z,94.63
2019-05-19T22:36:53.939Z,94.09
2019-05-19T22:39:25.764Z,93.84
2019-05-19T22:42:00.096Z,93.45
2019-05-19T22:44:31.719Z,93.05
2019-05-19T22:47:03.575Z,93.48
2019-05-19T22:49:35.278Z,93.52
2019-05-19T22:52:07.021Z,94.09
2019-05-19T22:54:38.843Z,94.62
2019-05-19T22:57:10.586Z,94.42
2019-05-19T22:59:42.307Z,94.82
2019-05-19T23:02:14.052Z,95.58
2019-05-19T23:04:45.885Z,95.19
2019-05-19T23:07:17.666Z,95.06
2019-05-19T23:09:49.382Z,94.78
2019-05-19T23:12:21.131Z,95.55
2019-05-19T23:14:54.323Z,95.79
2019-05-19T23:17:28.085Z,95.64
2019-05-19T23:19:59.803Z,96.03
2019-05-19T23:22:31.562Z,96.19
2019-05-19T23:25:03.757Z,96.37
2019-05-19T23:27:35.710Z,96.01
2019-05-19T23:30:11.183Z,96.21
2019-05-19T23:32:42.913Z,96.24
2019-05-19T23:35:14.700Z,96.68
2019-05-19T23:37:47.635Z,96.75
2019-05-19T23:40:19.363Z,97.21
2019-05-19T23:42:52.955Z,97.35
2019-05-19T23:45:24.678Z,97.00
2019-05-19T23:47:56.530Z,97.35
2019-05-19T23:50:28.257Z,98.24
2019-05-19T23:53:00.005Z,98.30
2019-05-19T23:55:32.605Z,98.38
2019-05-19T23:58:04.448Z,98.10
